Time;durP1;ratioP1;P1;durP2;ratioP2;P2;SDS_P1;SDS_P2;PMS_P1;PMS_P2;Temp;Humidity;BMP_temperature;BMP_pressure;BME280_temperature;BME280_humidity;BME280_pressure;Samples;Min_cycle;Max_cycle;Signal;HPM_P1;HPM_P2
2022/07/15 00:01:36;;;;;;;7.95;2.53;;;15.40;78.00;;;;;;5058853;28;20120;-79
2022/07/15 00:04:01;;;;;;;8.13;2.30;;;15.30;77.60;;;;;;5028861;28;20032;-78
2022/07/15 00:06:27;;;;;;;5.03;1.85;;;15.30;80.50;;;;;;5048416;28;20470;-79
2022/07/15 00:08:52;;;;;;;6.18;2.20;;;15.50;77.50;;;;;;5057164;28;20033;-79
2022/07/15 00:11:18;;;;;;;10.05;2.60;;;15.40;75.70;;;;;;5045029;28;20037;-79
2022/07/15 00:13:44;;;;;;;10.88;2.92;;;15.20;77.50;;;;;;5046608;28;20032;-79
2022/07/15 00:16:09;;;;;;;6.05;2.40;;;15.20;82.30;;;;;;5047053;28;20506;-79
2022/07/15 00:18:35;;;;;;;6.25;2.47;;;15.20;76.10;;;;;;5059570;28;20036;-79
2022/07/15 00:21:01;;;;;;;5.95;2.20;;;15.10;76.10;;;;;;5060173;28;20047;-79
2022/07/15 00:23:26;;;;;;;8.43;3.03;;;15.10;77.50;;;;;;5041879;28;20025;-79
2022/07/15 00:25:52;;;;;;;11.38;2.60;;;15.20;75.00;;;;;;5040336;28;20111;-79
2022/07/15 00:28:17;;;;;;;2.42;1.67;;;15.10;75.00;;;;;;5054238;28;20025;-79
2022/07/15 00:30:43;;;;;;;9.60;2.20;;;15.10;78.00;;;;;;5054892;28;20032;-79
2022/07/15 00:33:09;;;;;;;6.78;2.45;;;14.80;79.20;;;;;;5043875;28;20481;-79
2022/07/15 00:35:35;;;;;;;8.18;2.55;;;14.80;79.20;;;;;;5043753;28;20033;-79
2022/07/15 00:38:01;;;;;;;10.55;2.50;;;14.90;81.10;;;;;;5013823;28;20056;-78
2022/07/15 00:40:27;;;;;;;7.55;2.13;;;14.70;84.50;;;;;;5057761;28;20070;-79
2022/07/15 00:42:53;;;;;;;7.93;2.40;;;14.70;83.60;;;;;;5038611;28;20037;-79
2022/07/15 00:45:20;;;;;;;9.82;2.92;;;14.70;84.00;;;;;;5053722;28;20056;-79
2022/07/15 00:47:47;;;;;;;11.00;2.65;;;14.60;84.00;;;;;;5042811;28;20033;-79
2022/07/15 00:50:14;;;;;;;6.40;2.22;;;14.50;84.20;;;;;;5055781;28;20540;-79
2022/07/15 00:52:41;;;;;;;6.57;2.28;;;14.60;89.00;;;;;;5041012;28;20434;-79
2022/07/15 00:55:10;;;;;;;6.75;2.33;;;14.70;90.60;;;;;;5030071;28;20115;-79
2022/07/15 00:57:37;;;;;;;10.00;2.70;;;14.70;88.90;;;;;;5049940;28;20058;-79
2022/07/15 01:00:04;;;;;;;6.13;2.30;;;14.60;89.20;;;;;;5043621;28;20044;-79
2022/07/15 01:02:30;;;;;;;9.90;2.33;;;14.70;90.70;;;;;;5039495;28;20599;-79
2022/07/15 01:04:56;;;;;;;6.38;2.55;;;14.70;90.00;;;;;;5043281;28;20045;-79
2022/07/15 01:07:22;;;;;;;5.72;2.00;;;14.70;88.40;;;;;;5045121;28;20037;-79
2022/07/15 01:09:47;;;;;;;7.75;1.92;;;14.80;86.90;;;;;;5040492;28;20437;-79
2022/07/15 01:12:13;;;;;;;4.43;2.00;;;14.80;87.00;;;;;;5052354;28;20040;-79
2022/07/15 01:14:39;;;;;;;5.63;1.83;;;14.90;88.40;;;;;;5051203;28;20464;-78
2022/07/15 01:17:09;;;;;;;5.80;2.00;;;14.90;89.70;;;;;;5012812;28;20055;-78
2022/07/15 01:19:35;;;;;;;6.43;1.83;;;14.90;87.50;;;;;;5043182;28;20040;-77
2022/07/15 01:22:00;;;;;;;4.93;1.60;;;14.90;89.00;;;;;;5029619;28;20039;-78
2022/07/15 01:24:26;;;;;;;4.18;1.63;;;14.90;88.80;;;;;;5035302;28;20033;-78
2022/07/15 01:26:52;;;;;;;6.75;2.10;;;15.00;87.40;;;;;;5051989;28;20028;-78
2022/07/15 01:29:18;;;;;;;6.93;1.75;;;14.90;88.80;;;;;;5042894;28;20033;-79
2022/07/15 01:31:43;;;;;;;8.80;1.73;;;14.90;89.50;;;;;;5054643;28;20099;-78
2022/07/15 01:34:09;;;;;;;9.88;2.13;;;14.90;88.30;;;;;;5054946;28;20459;-78
2022/07/15 01:36:35;;;;;;;9.60;2.35;;;15.00;89.20;;;;;;5052780;28;20055;-78
2022/07/15 01:39:01;;;;;;;6.32;1.95;;;15.00;89.00;;;;;;5029010;28;20421;-78
2022/07/15 01:41:26;;;;;;;11.93;2.50;;;15.00;89.60;;;;;;5049484;28;20037;-79
2022/07/15 01:43:52;;;;;;;10.75;2.40;;;14.90;89.50;;;;;;5046449;28;20150;-78
2022/07/15 01:46:17;;;;;;;6.95;2.25;;;14.90;90.00;;;;;;5049539;28;20035;-79
2022/07/15 01:51:27;;;;;;;7.45;2.00;;;15.00;90.60;;;;;;5055498;28;20051;-79
2022/07/15 01:53:52;;;;;;;5.20;1.83;;;15.00;89.20;;;;;;5053405;28;20472;-79
2022/07/15 01:56:18;;;;;;;9.23;2.05;;;15.00;90.10;;;;;;5051243;28;20182;-79
2022/07/15 01:58:43;;;;;;;6.15;1.88;;;15.00;90.20;;;;;;5053592;28;20025;-79
2022/07/15 02:01:09;;;;;;;6.35;1.75;;;14.90;90.30;;;;;;5040154;28;20039;-79
2022/07/15 02:03:35;;;;;;;8.90;1.90;;;14.90;90.90;;;;;;5037312;28;20033;-79
2022/07/15 02:06:00;;;;;;;7.03;1.73;;;15.00;90.40;;;;;;5027966;28;20032;-78
2022/07/15 02:08:26;;;;;;;6.10;1.60;;;14.90;90.70;;;;;;5054771;28;20476;-79
2022/07/15 02:10:51;;;;;;;6.03;1.67;;;14.90;90.20;;;;;;5052450;28;20032;-78
2022/07/15 02:13:17;;;;;;;13.38;1.98;;;14.90;90.70;;;;;;5052252;28;20112;-79
2022/07/15 02:15:42;;;;;;;7.60;1.60;;;14.90;90.80;;;;;;5043332;28;20484;-79
2022/07/15 02:18:10;;;;;;;4.38;1.60;;;15.10;91.30;;;;;;5050918;28;20439;-78
2022/07/15 02:20:35;;;;;;;12.00;2.10;;;15.00;90.80;;;;;;5051566;28;20064;-78
2022/07/15 02:23:01;;;;;;;8.23;2.20;;;15.00;90.40;;;;;;5044277;28;20429;-78
2022/07/15 02:25:31;;;;;;;6.22;1.63;;;14.80;90.60;;;;;;5052715;28;20484;-78
2022/07/15 02:27:58;;;;;;;12.27;1.98;;;14.90;90.70;;;;;;5053542;28;20540;-79
2022/07/15 02:30:26;;;;;;;7.28;1.92;;;14.70;91.00;;;;;;5053980;28;20028;-78
2022/07/15 02:32:51;;;;;;;12.98;3.08;;;14.80;91.00;;;;;;5043899;28;20029;-78
2022/07/15 02:35:17;;;;;;;11.98;2.30;;;14.70;90.60;;;;;;5052247;28;20035;-78
2022/07/15 02:37:43;;;;;;;8.18;2.25;;;14.70;91.20;;;;;;5027851;28;20025;-78
2022/07/15 02:40:10;;;;;;;7.13;2.08;;;14.70;90.50;;;;;;5050541;28;20083;-78
2022/07/15 02:42:35;;;;;;;10.25;2.20;;;14.60;90.90;;;;;;5052291;28;20153;-78
2022/07/15 02:45:01;;;;;;;8.95;2.20;;;14.50;90.70;;;;;;5052633;28;20492;-78
2022/07/15 02:47:27;;;;;;;7.90;2.60;;;14.40;91.00;;;;;;5045649;28;20123;-79
2022/07/15 02:49:52;;;;;;;8.88;2.67;;;14.30;91.50;;;;;;5052548;28;20033;-78
2022/07/15 02:52:18;;;;;;;8.02;2.50;;;14.20;91.80;;;;;;5050721;28;20105;-78
2022/07/15 02:54:43;;;;;;;9.70;2.53;;;14.30;90.60;;;;;;5047357;28;20387;-78
2022/07/15 02:57:10;;;;;;;7.85;1.58;;;14.20;92.20;;;;;;5034801;28;20045;-78
2022/07/15 02:59:35;;;;;;;7.85;3.50;;;14.20;89.90;;;;;;5051500;28;20123;-78
2022/07/15 03:02:01;;;;;;;8.05;2.92;;;14.40;89.30;;;;;;5055099;28;20048;-78
2022/07/15 03:04:27;;;;;;;6.00;2.70;;;14.10;91.50;;;;;;5049631;28;20029;-78
2022/07/15 03:06:52;;;;;;;11.05;3.83;;;14.00;90.00;;;;;;5055912;28;20032;-78
2022/07/15 03:09:18;;;;;;;11.70;3.35;;;14.00;89.00;;;;;;5037912;28;20118;-78
2022/07/15 03:11:43;;;;;;;15.35;3.85;;;13.80;90.60;;;;;;5036058;28;20036;-78
2022/07/15 03:14:09;;;;;;;10.02;3.42;;;13.70;91.60;;;;;;5041231;28;20063;-78
2022/07/15 03:16:35;;;;;;;8.43;3.67;;;13.70;92.40;;;;;;5048579;28;20148;-78
2022/07/15 03:19:00;;;;;;;9.05;4.40;;;13.60;91.70;;;;;;5042008;28;20492;-78
2022/07/15 03:21:26;;;;;;;11.82;4.05;;;13.50;91.00;;;;;;5054256;28;20040;-79
2022/07/15 03:23:51;;;;;;;9.18;4.00;;;13.50;91.40;;;;;;5043005;28;20480;-78
2022/07/15 03:26:17;;;;;;;10.15;4.55;;;13.40;92.40;;;;;;5053626;28;20369;-78
2022/07/15 03:28:44;;;;;;;13.32;3.95;;;13.40;91.60;;;;;;5006239;28;20037;-78
2022/07/15 03:31:09;;;;;;;14.10;4.03;;;13.40;93.60;;;;;;5026821;28;20385;-79
2022/07/15 03:33:35;;;;;;;11.57;4.10;;;13.40;95.30;;;;;;5052768;28;20106;-79
2022/07/15 03:36:02;;;;;;;16.50;5.28;;;13.30;93.00;;;;;;5025699;28;20024;-79
2022/07/15 03:38:27;;;;;;;11.07;4.65;;;13.20;93.20;;;;;;5018805;28;20021;-79
2022/07/15 03:40:53;;;;;;;12.25;4.63;;;13.10;94.60;;;;;;5052326;28;20372;-79
2022/07/15 03:43:20;;;;;;;13.93;5.10;;;13.10;93.50;;;;;;5023223;28;20537;-78
2022/07/15 03:45:45;;;;;;;12.68;4.45;;;13.20;96.70;;;;;;5025212;28;20029;-78
2022/07/15 03:48:11;;;;;;;10.57;4.47;;;13.20;96.40;;;;;;5042986;28;20087;-78
2022/07/15 03:50:36;;;;;;;12.63;4.45;;;13.20;94.40;;;;;;5053858;28;20037;-78
2022/07/15 03:53:02;;;;;;;9.30;4.22;;;13.10;96.70;;;;;;5049699;28;20021;-78
2022/07/15 03:55:27;;;;;;;11.18;4.35;;;13.20;92.80;;;;;;5052048;28;20033;-78
2022/07/15 03:57:55;;;;;;;12.27;4.47;;;13.20;94.20;;;;;;5056984;28;20033;-78
2022/07/15 04:00:21;;;;;;;12.95;4.38;;;13.30;93.50;;;;;;5057971;28;20036;-78
2022/07/15 04:02:47;;;;;;;15.35;4.13;;;13.20;95.30;;;;;;5051017;28;20032;-78
2022/07/15 04:05:12;;;;;;;13.25;4.45;;;13.20;95.90;;;;;;5048925;28;20036;-78
2022/07/15 04:07:39;;;;;;;12.07;5.25;;;13.20;93.50;;;;;;5045342;28;20345;-78
2022/07/15 04:10:05;;;;;;;9.35;4.30;;;13.20;93.60;;;;;;5052511;28;20024;-78
2022/07/15 04:12:30;;;;;;;12.90;4.53;;;13.20;95.30;;;;;;5033789;28;20396;-78
2022/07/15 04:14:56;;;;;;;15.43;5.05;;;13.10;96.90;;;;;;5038415;28;20124;-78
2022/07/15 04:17:22;;;;;;;15.05;4.90;;;13.20;97.60;;;;;;5050583;28;20052;-78
2022/07/15 04:19:47;;;;;;;9.32;4.32;;;13.10;95.10;;;;;;5052517;28;20041;-78
2022/07/15 04:22:13;;;;;;;11.60;5.15;;;13.30;97.20;;;;;;5054342;28;20485;-78
2022/07/15 04:24:38;;;;;;;15.07;5.28;;;13.50;95.30;;;;;;5052798;28;20500;-78
2022/07/15 04:27:04;;;;;;;10.85;4.75;;;13.70;95.60;;;;;;5038137;28;20035;-78
2022/07/15 04:29:29;;;;;;;13.63;4.72;;;13.80;94.70;;;;;;5051999;28;20067;-78
2022/07/15 04:31:55;;;;;;;13.40;4.43;;;13.90;95.30;;;;;;5053440;28;20038;-79
2022/07/15 04:34:20;;;;;;;17.55;5.43;;;14.10;93.20;;;;;;5052286;28;20028;-78
2022/07/15 04:36:46;;;;;;;15.98;4.35;;;14.20;92.40;;;;;;5046407;28;20028;-78
2022/07/15 04:39:11;;;;;;;11.38;4.57;;;14.40;91.80;;;;;;5028916;28;20033;-78
2022/07/15 04:41:37;;;;;;;8.73;3.95;;;14.50;91.60;;;;;;5057930;28;20087;-77
2022/07/15 04:44:03;;;;;;;13.13;3.97;;;14.70;93.70;;;;;;5056822;28;20029;-76
2022/07/15 04:46:28;;;;;;;11.60;3.92;;;14.90;91.70;;;;;;5037118;28;20041;-78
2022/07/15 04:51:38;;;;;;;9.30;4.20;;;15.30;92.40;;;;;;5058319;28;20039;-78
2022/07/15 04:54:03;;;;;;;8.30;3.83;;;15.40;93.60;;;;;;5042725;28;20033;-78
2022/07/15 04:56:31;;;;;;;11.57;3.80;;;15.60;93.80;;;;;;5057304;28;20029;-77
2022/07/15 04:58:56;;;;;;;9.85;3.75;;;15.80;93.30;;;;;;5055403;28;20032;-77
2022/07/15 05:01:22;;;;;;;14.90;4.03;;;16.10;93.70;;;;;;5028837;28;20039;-78
2022/07/15 05:03:47;;;;;;;9.98;4.35;;;16.30;93.60;;;;;;5043450;28;20044;-77
2022/07/15 05:06:13;;;;;;;7.38;3.45;;;16.50;93.60;;;;;;5026522;28;20071;-78
2022/07/15 05:08:38;;;;;;;10.98;3.78;;;16.70;93.20;;;;;;5043846;28;20033;-78
2022/07/15 05:11:04;;;;;;;7.50;4.15;;;16.90;93.00;;;;;;5045332;28;20040;-78
2022/07/15 05:13:30;;;;;;;9.30;3.40;;;17.10;92.90;;;;;;5052068;28;20036;-78
2022/07/15 05:15:55;;;;;;;9.85;3.67;;;17.30;92.30;;;;;;5059271;28;20078;-78
2022/07/15 05:18:21;;;;;;;7.18;3.20;;;17.50;92.30;;;;;;5028788;28;20068;-78
2022/07/15 05:20:46;;;;;;;15.48;3.20;;;17.70;92.00;;;;;;5055687;28;20029;-78
2022/07/15 05:23:12;;;;;;;7.00;2.53;;;17.90;91.80;;;;;;5040216;28;20139;-78
2022/07/15 05:25:37;;;;;;;9.30;2.55;;;18.00;91.30;;;;;;5053823;28;20132;-78
2022/07/15 05:28:03;;;;;;;9.82;2.50;;;18.10;91.20;;;;;;5056473;28;20028;-78
2022/07/15 05:30:29;;;;;;;12.38;3.00;;;18.30;90.90;;;;;;5057073;28;20061;-78
2022/07/15 05:32:54;;;;;;;11.30;3.10;;;18.50;90.60;;;;;;5044299;28;20740;-78
2022/07/15 05:35:21;;;;;;;12.90;3.83;;;18.60;90.30;;;;;;5035181;28;20082;-78
2022/07/15 05:37:46;;;;;;;7.97;3.00;;;18.90;90.20;;;;;;5056199;28;20082;-78
2022/07/15 05:40:12;;;;;;;12.07;3.00;;;19.10;88.80;;;;;;5010641;28;20036;-79
2022/07/15 05:42:39;;;;;;;7.53;2.78;;;19.30;89.20;;;;;;5036085;28;20478;-79
2022/07/15 05:45:05;;;;;;;8.80;2.28;;;19.50;88.10;;;;;;5029873;28;20036;-78
2022/07/15 05:47:31;;;;;;;11.68;2.80;;;19.70;87.10;;;;;;5035779;28;20124;-78
2022/07/15 05:49:57;;;;;;;7.63;2.58;;;19.90;87.00;;;;;;5053512;28;20651;-78
2022/07/15 05:52:22;;;;;;;11.73;2.72;;;20.10;86.10;;;;;;5050726;28;20112;-78
2022/07/15 05:54:48;;;;;;;10.85;2.67;;;20.30;85.10;;;;;;5051821;28;20850;-78
2022/07/15 05:57:14;;;;;;;11.50;3.17;;;20.50;84.60;;;;;;5049043;28;20040;-79
2022/07/15 05:59:39;;;;;;;5.32;2.22;;;20.80;83.30;;;;;;5044444;28;20040;-78
2022/07/15 06:02:05;;;;;;;9.23;2.85;;;20.90;83.50;;;;;;5041748;28;20031;-78
2022/07/15 06:04:32;;;;;;;11.35;2.25;;;21.20;82.20;;;;;;5043235;28;20040;-78
2022/07/15 06:06:57;;;;;;;11.43;2.60;;;21.30;81.10;;;;;;5054168;28;20499;-78
2022/07/15 06:09:23;;;;;;;11.82;2.42;;;21.50;80.70;;;;;;5039024;28;20036;-79
2022/07/15 06:11:48;;;;;;;7.60;2.78;;;21.70;79.40;;;;;;5053273;28;20131;-79
2022/07/15 06:14:14;;;;;;;8.98;2.10;;;21.90;78.40;;;;;;5054212;28;20059;-79
2022/07/15 06:16:39;;;;;;;9.05;2.55;;;21.90;76.60;;;;;;5054203;28;20029;-79
2022/07/15 06:19:08;;;;;;;6.50;2.13;;;22.10;76.00;;;;;;5043515;28;20835;-79
2022/07/15 06:21:34;;;;;;;4.47;1.63;;;22.30;76.10;;;;;;5057544;28;20166;-79
2022/07/15 06:24:00;;;;;;;8.88;2.15;;;22.40;74.10;;;;;;5027483;28;20067;-79
2022/07/15 06:26:26;;;;;;;8.57;1.88;;;22.60;74.90;;;;;;5036242;28;20071;-79
2022/07/15 06:28:51;;;;;;;11.45;1.90;;;22.80;73.10;;;;;;5037819;28;20024;-79
2022/07/15 06:31:17;;;;;;;3.97;1.20;;;22.90;71.20;;;;;;5036532;28;20056;-79
2022/07/15 06:33:43;;;;;;;7.43;1.67;;;23.00;71.00;;;;;;5052677;28;20060;-79
2022/07/15 06:36:08;;;;;;;5.28;1.58;;;23.20;70.20;;;;;;5026920;28;20064;-79
2022/07/15 06:38:34;;;;;;;8.77;1.70;;;23.50;69.50;;;;;;5055170;28;20087;-79
2022/07/15 06:40:59;;;;;;;5.75;1.40;;;23.50;68.70;;;;;;5010500;28;20025;-80
2022/07/15 06:43:25;;;;;;;11.18;1.70;;;23.70;68.10;;;;;;5055260;28;20119;-80
2022/07/15 06:45:50;;;;;;;8.20;1.48;;;23.90;66.70;;;;;;5041410;28;20481;-80
2022/07/15 06:48:16;;;;;;;7.00;1.83;;;24.10;66.40;;;;;;5019711;28;20049;-80
2022/07/15 06:50:42;;;;;;;5.47;1.25;;;24.40;64.50;;;;;;5052720;28;20026;-80
2022/07/15 06:53:08;;;;;;;6.38;1.52;;;24.50;64.10;;;;;;5011013;28;20468;-79
2022/07/15 06:55:33;;;;;;;5.05;0.90;;;24.90;61.80;;;;;;5050585;28;20054;-80
2022/07/15 06:57:59;;;;;;;3.92;1.02;;;25.10;61.70;;;;;;5024633;28;20029;-80
2022/07/15 07:00:24;;;;;;;5.63;1.33;;;25.20;63.50;;;;;;5041127;28;20417;-80
2022/07/15 07:02:50;;;;;;;10.45;2.03;;;25.50;60.00;;;;;;5058871;28;20546;-80
2022/07/15 07:05:16;;;;;;;6.03;1.60;;;25.60;58.00;;;;;;5047879;28;20033;-80
2022/07/15 07:07:42;;;;;;;9.80;1.38;;;25.90;58.10;;;;;;5055163;28;20039;-80
2022/07/15 07:10:08;;;;;;;8.63;1.60;;;26.00;58.00;;;;;;5050955;28;20035;-80
2022/07/15 07:12:34;;;;;;;4.40;1.00;;;26.30;57.90;;;;;;5041803;28;20406;-80
2022/07/15 07:15:02;;;;;;;5.63;1.00;;;26.30;57.50;;;;;;5028304;28;20037;-80
2022/07/15 07:17:28;;;;;;;4.53;1.30;;;26.50;57.30;;;;;;5041814;28;20033;-81
2022/07/15 07:19:55;;;;;;;10.23;1.70;;;26.80;56.70;;;;;;5044697;28;20037;-81
2022/07/15 07:22:21;;;;;;;7.95;1.35;;;26.80;55.80;;;;;;5045440;28;20036;-81
2022/07/15 07:24:46;;;;;;;5.65;1.38;;;26.90;55.20;;;;;;5030290;28;20032;-81
2022/07/15 07:27:12;;;;;;;9.57;1.73;;;26.90;54.90;;;;;;5013511;28;20444;-81
2022/07/15 07:29:37;;;;;;;3.75;1.17;;;26.90;54.90;;;;;;5056988;28;20044;-81
2022/07/15 07:32:03;;;;;;;8.50;1.33;;;26.60;54.60;;;;;;5055877;28;20029;-80
2022/07/15 07:34:29;;;;;;;6.88;1.67;;;26.60;54.30;;;;;;5060543;28;20025;-80
2022/07/15 07:36:54;;;;;;;4.82;1.20;;;26.40;52.90;;;;;;5050528;28;20040;-80
2022/07/15 07:39:20;;;;;;;3.72;1.23;;;26.30;53.70;;;;;;5033695;28;20036;-80
2022/07/15 07:41:46;;;;;;;8.18;1.70;;;26.10;54.00;;;;;;5044339;28;20119;-80
2022/07/15 07:44:12;;;;;;;6.78;1.60;;;26.10;53.00;;;;;;5011838;28;20481;-80
2022/07/15 07:46:38;;;;;;;9.45;1.20;;;26.00;53.30;;;;;;5041321;28;20025;-80
2022/07/15 07:49:03;;;;;;;6.32;1.50;;;25.90;53.40;;;;;;5047352;28;20087;-81
2022/07/15 07:51:29;;;;;;;4.63;1.17;;;25.90;53.40;;;;;;5044317;28;20022;-81
2022/07/15 07:53:56;;;;;;;9.68;1.98;;;25.90;53.90;;;;;;5046608;28;20021;-81
2022/07/15 07:56:22;;;;;;;7.07;1.80;;;26.20;54.20;;;;;;5055842;28;20143;-80
2022/07/15 07:58:47;;;;;;;5.57;1.38;;;26.50;54.10;;;;;;5058020;28;20112;-80
2022/07/15 08:01:13;;;;;;;9.15;1.08;;;26.70;53.20;;;;;;5005390;28;20040;-80
2022/07/15 08:03:38;;;;;;;2.83;1.05;;;27.00;52.70;;;;;;5058318;28;20029;-81
2022/07/15 08:06:04;;;;;;;4.10;0.95;;;27.40;52.30;;;;;;5044783;28;20021;-81
2022/07/15 08:08:29;;;;;;;6.95;1.45;;;27.60;52.30;;;;;;5040095;28;20025;-81
2022/07/15 08:10:58;;;;;;;4.07;1.42;;;27.80;52.90;;;;;;5055630;28;20024;-81
2022/07/15 08:13:25;;;;;;;6.75;1.35;;;27.70;52.50;;;;;;5044392;28;20029;-81
2022/07/15 08:15:53;;;;;;;6.05;1.08;;;27.80;51.90;;;;;;5045188;28;20572;-81
2022/07/15 08:18:19;;;;;;;3.05;1.08;;;27.70;52.00;;;;;;5046864;28;20066;-82
2022/07/15 08:20:44;;;;;;;5.38;1.13;;;27.70;51.60;;;;;;5057689;28;20087;-82
2022/07/15 08:23:10;;;;;;;7.38;1.00;;;27.70;50.90;;;;;;5040929;28;20017;-81
2022/07/15 08:25:36;;;;;;;7.70;1.52;;;27.60;51.30;;;;;;5042618;28;20044;-81
2022/07/15 08:28:02;;;;;;;3.13;1.13;;;27.50;51.10;;;;;;5022055;28;20032;-82
2022/07/15 08:30:29;;;;;;;3.70;1.05;;;27.40;50.50;;;;;;5014857;28;20039;-82
2022/07/15 08:32:54;;;;;;;2.83;0.90;;;27.30;50.50;;;;;;5012308;28;20040;-83
2022/07/15 08:35:21;;;;;;;4.57;1.10;;;27.20;50.70;;;;;;5042959;28;20040;-82
2022/07/15 08:37:47;;;;;;;6.60;1.77;;;27.10;50.90;;;;;;5044916;28;20041;-81
2022/07/15 08:40:12;;;;;;;5.30;1.25;;;27.10;50.90;;;;;;5044403;28;20102;-82
2022/07/15 08:42:43;;;;;;;5.32;0.70;;;27.00;50.50;;;;;;5044068;28;20178;-81
2022/07/15 08:45:09;;;;;;;4.05;1.20;;;26.80;50.10;;;;;;5060134;28;20029;-82
2022/07/15 08:47:35;;;;;;;7.50;1.00;;;26.90;50.60;;;;;;5056578;28;20587;-81
2022/07/15 08:50:02;;;;;;;2.95;1.10;;;27.20;49.70;;;;;;5046051;28;20551;-82
2022/07/15 08:52:27;;;;;;;3.65;1.02;;;27.30;49.90;;;;;;5053944;28;20059;-82
2022/07/15 08:54:53;;;;;;;5.32;1.13;;;27.50;50.50;;;;;;5058008;28;20032;-81
2022/07/15 08:57:18;;;;;;;6.57;1.20;;;27.70;50.30;;;;;;5032014;28;20598;-81
2022/07/15 08:59:46;;;;;;;9.65;1.00;;;27.80;50.80;;;;;;5059918;28;20032;-82
2022/07/15 09:02:14;;;;;;;2.25;0.75;;;28.30;48.80;;;;;;5035718;28;20109;-82
2022/07/15 09:05:17;;;;;;;6.20;1.00;;;28.40;49.10;;;;;;5055149;28;20028;-82
2022/07/15 09:08:04;;;;;;;5.30;0.63;;;28.70;48.70;;;;;;5043516;28;20033;-81
2022/07/15 09:10:55;;;;;;;7.18;1.17;;;29.00;48.90;;;;;;5059581;28;20029;-82
2022/07/15 09:13:25;;;;;;;5.68;0.98;;;29.50;47.60;;;;;;5053569;28;20128;-82
2022/07/15 09:15:54;;;;;;;6.45;1.50;;;29.40;47.60;;;;;;5052886;28;20025;-82
2022/07/15 09:18:24;;;;;;;3.90;0.75;;;29.60;47.10;;;;;;5012907;28;20037;-82
2022/07/15 09:20:50;;;;;;;5.82;1.20;;;29.80;47.30;;;;;;5055645;28;20037;-82
2022/07/15 09:23:24;;;;;;;7.18;1.38;;;29.80;46.60;;;;;;5038696;28;20395;-83
2022/07/15 09:25:50;;;;;;;4.63;1.17;;;29.90;46.60;;;;;;5049124;28;20720;-83
2022/07/15 09:28:15;;;;;;;8.65;1.40;;;29.90;45.50;;;;;;5045371;28;20036;-84
2022/07/15 09:34:04;;;;;;;4.97;0.93;;;29.70;45.50;;;;;;5036664;28;20036;-84
2022/07/15 09:36:24;;;;;;;3.15;0.90;;;29.50;46.40;;;;;;5053798;28;20036;-83
2022/07/15 09:38:58;;;;;;;4.05;1.10;;;29.30;46.80;;;;;;5042335;28;20025;-84
2022/07/15 09:41:27;;;;;;;4.05;0.90;;;29.20;45.60;;;;;;5023048;28;20025;-83
2022/07/15 09:44:13;;;;;;;6.30;1.00;;;29.00;46.40;;;;;;5039154;28;20017;-84
2022/07/15 09:46:43;;;;;;;3.90;1.30;;;29.10;46.10;;;;;;5052365;28;20036;-84
2022/07/15 09:49:13;;;;;;;3.42;1.10;;;29.10;45.80;;;;;;5046710;28;20040;-83
2022/07/15 09:51:55;;;;;;;6.50;1.23;;;29.00;45.80;;;;;;5040808;28;20025;-84
2022/07/15 09:54:21;;;;;;;3.10;1.13;;;29.20;45.90;;;;;;5029745;28;20040;-83
2022/07/15 09:56:47;;;;;;;4.88;1.10;;;29.80;44.70;;;;;;5054564;28;20052;-84
2022/07/15 09:59:14;;;;;;;4.13;1.40;;;29.70;45.00;;;;;;5018288;28;20099;-83
2022/07/15 10:01:40;;;;;;;3.35;1.10;;;29.80;44.90;;;;;;5041575;28;20037;-84
2022/07/15 10:04:06;;;;;;;6.28;1.20;;;29.80;44.80;;;;;;5029611;28;20118;-84
2022/07/15 10:06:32;;;;;;;4.03;1.08;;;29.80;44.90;;;;;;5053950;28;20504;-84
2022/07/15 10:08:58;;;;;;;2.15;0.80;;;29.70;45.00;;;;;;5039532;28;20120;-84
2022/07/15 10:11:23;;;;;;;1.85;0.63;;;29.70;44.40;;;;;;5038012;28;20123;-83
2022/07/15 10:14:26;;;;;;;6.07;1.20;;;29.70;44.90;;;;;;5043794;28;20314;-84
2022/07/15 10:16:52;;;;;;;6.88;1.90;;;29.60;44.70;;;;;;5054958;28;20036;-84
2022/07/15 10:19:24;;;;;;;2.00;1.15;;;29.60;45.20;;;;;;5053905;28;20040;-84
2022/07/15 10:22:19;;;;;;;6.28;1.10;;;29.50;45.60;;;;;;5051648;28;20032;-84
2022/07/15 10:24:50;;;;;;;4.40;1.08;;;29.70;45.30;;;;;;5039436;28;20666;-84
2022/07/15 10:27:37;;;;;;;2.53;1.10;;;29.50;45.10;;;;;;5060312;28;20064;-85
2022/07/15 10:30:04;;;;;;;4.57;1.50;;;29.40;44.80;;;;;;5054692;28;20036;-84
2022/07/15 10:32:38;;;;;;;3.08;0.90;;;29.40;44.40;;;;;;5055567;28;20039;-84
2022/07/15 10:35:29;;;;;;;1.88;0.60;;;29.10;43.70;;;;;;5055397;28;20074;-84
2022/07/15 10:38:20;;;;;;;3.35;0.80;;;28.80;44.40;;;;;;5053331;28;20078;-84
2022/07/15 10:40:59;;;;;;;4.07;0.82;;;28.70;44.80;;;;;;5056365;28;20036;-84
2022/07/15 10:43:44;;;;;;;1.30;0.60;;;28.50;44.30;;;;;;5028626;28;20048;-84
2022/07/15 10:46:20;;;;;;;2.03;0.60;;;28.40;44.30;;;;;;5035205;28;20037;-85
2022/07/15 10:48:46;;;;;;;6.68;1.02;;;28.20;43.40;;;;;;5053729;28;20274;-84
2022/07/15 10:51:12;;;;;;;3.05;0.93;;;28.10;44.20;;;;;;5052027;28;20029;-84
2022/07/15 10:53:47;;;;;;;3.88;0.65;;;27.90;44.60;;;;;;5042852;28;20037;-83
2022/07/15 10:56:40;;;;;;;6.65;1.20;;;28.20;45.30;;;;;;5053655;28;20395;-84
2022/07/15 10:59:08;;;;;;;3.35;0.80;;;28.80;45.10;;;;;;5055313;28;20033;-84
2022/07/15 11:01:34;;;;;;;4.45;0.65;;;29.00;45.00;;;;;;5057756;28;20467;-84
2022/07/15 11:04:20;;;;;;;5.13;1.13;;;29.20;44.80;;;;;;5059079;28;20036;-84
2022/07/15 11:07:09;;;;;;;3.88;0.73;;;29.50;43.80;;;;;;5015862;28;20044;-85
2022/07/15 11:09:46;;;;;;;9.63;1.23;;;29.60;44.00;;;;;;5053749;28;20033;-84
2022/07/15 11:12:12;;;;;;;4.95;0.90;;;29.70;43.80;;;;;;5039762;28;20088;-85
2022/07/15 11:14:45;;;;;;;3.28;0.70;;;29.70;44.20;;;;;;5040770;28;20052;-84
2022/07/15 11:17:11;;;;;;;2.22;0.82;;;29.50;42.60;;;;;;5052186;28;20053;-85
2022/07/15 11:19:37;;;;;;;6.95;1.10;;;29.50;43.20;;;;;;5055606;28;20404;-85
2022/07/15 11:22:03;;;;;;;1.02;0.40;;;29.40;43.20;;;;;;5046143;28;20036;-85
2022/07/15 11:24:29;;;;;;;2.72;0.88;;;29.40;44.30;;;;;;5042144;28;20098;-85
2022/07/15 11:26:54;;;;;;;3.67;1.00;;;29.40;43.80;;;;;;5041602;28;20037;-84
2022/07/15 11:29:20;;;;;;;3.28;1.00;;;29.50;43.80;;;;;;5016052;28;20057;-85
2022/07/15 11:31:47;;;;;;;4.35;0.88;;;29.80;43.10;;;;;;5043346;28;20134;-85
2022/07/15 11:34:13;;;;;;;2.33;0.80;;;29.80;42.70;;;;;;5012444;28;20516;-84
2022/07/15 11:36:38;;;;;;;3.80;0.85;;;29.70;44.20;;;;;;5054712;28;20059;-86
2022/07/15 11:39:04;;;;;;;3.80;0.70;;;29.90;43.30;;;;;;5043230;28;20036;-86
2022/07/15 11:44:29;;;;;;;2.72;0.80;;;30.60;42.60;;;;;;5056917;28;20032;-87
2022/07/15 11:46:55;;;;;;;2.05;0.65;;;30.90;42.30;;;;;;5044824;28;20028;-88
2022/07/15 11:49:31;;;;;;;1.58;0.73;;;31.00;41.40;;;;;;5045112;28;20029;-88
2022/07/15 11:51:57;;;;;;;;;;;30.80;41.20;;;;;;5056231;28;20032;-89
2022/07/15 11:54:22;;;;;;;;;;;30.60;40.70;;;;;;5063026;28;19909;-88
2022/07/15 11:56:54;;;;;;;2.17;0.90;;;30.50;40.80;;;;;;5054204;28;19924;-88
2022/07/15 11:59:20;;;;;;;3.03;0.70;;;30.10;41.00;;;;;;5033835;28;20106;-89
2022/07/15 12:01:45;;;;;;;1.45;0.60;;;30.00;40.80;;;;;;5009136;28;20068;-87
2022/07/15 12:04:11;;;;;;;0.65;0.50;;;29.80;40.20;;;;;;5059488;28;20028;-88
2022/07/15 12:06:39;;;;;;;1.95;0.75;;;29.70;42.30;;;;;;5004245;28;20121;-87
2022/07/15 12:09:08;;;;;;;3.85;0.63;;;30.20;41.80;;;;;;5017461;28;20522;-88
2022/07/15 12:11:37;;;;;;;2.00;0.47;;;30.50;41.30;;;;;;5030200;28;20040;-89
2022/07/15 12:14:26;;;;;;;2.22;0.60;;;31.10;40.90;;;;;;5065465;28;20032;-89
2022/07/15 12:16:52;;;;;;;2.83;0.63;;;31.40;40.40;;;;;;5033375;28;20049;-86
2022/07/15 12:19:23;;;;;;;0.95;0.40;;;31.30;39.70;;;;;;5017757;28;20028;-89
2022/07/15 12:21:54;;;;;;;4.00;0.75;;;31.30;39.40;;;;;;5045387;28;20570;-88
2022/07/15 12:24:21;;;;;;;2.45;0.80;;;31.30;39.20;;;;;;5025641;28;20032;-88
2022/07/15 12:26:49;;;;;;;2.10;0.60;;;31.50;39.50;;;;;;5057826;28;20028;-89
2022/07/15 12:29:22;;;;;;;2.20;0.60;;;31.60;40.00;;;;;;5040379;28;20048;-86
2022/07/15 12:31:52;;;;;;;2.88;1.33;;;31.70;40.30;;;;;;5054990;28;20029;-89
2022/07/15 12:34:18;;;;;;;2.90;0.90;;;32.00;39.90;;;;;;5031947;28;20369;-88
2022/07/15 12:36:43;;;;;;;2.95;0.80;;;32.10;37.90;;;;;;5046929;28;20039;-87
2022/07/15 12:39:16;;;;;;;2.17;0.75;;;31.80;39.10;;;;;;5057718;28;20045;-88
2022/07/15 12:41:43;;;;;;;2.25;0.50;;;31.80;38.00;;;;;;5010807;28;20361;-89
2022/07/15 12:44:08;;;;;;;4.57;1.10;;;31.60;37.40;;;;;;5030902;28;20025;-89
2022/07/15 12:47:12;;;;;;;1.15;0.60;;;31.50;38.60;;;;;;5055701;28;20431;-89
2022/07/15 12:49:51;;;;;;;1.67;0.60;;;31.70;38.10;;;;;;5037063;28;20037;-88
2022/07/15 12:52:16;;;;;;;2.92;0.80;;;31.70;38.20;;;;;;5030524;28;20396;-88
2022/07/15 12:54:42;;;;;;;3.38;0.82;;;31.70;38.10;;;;;;5056677;28;20036;-89
2022/07/15 12:57:32;;;;;;;4.32;1.08;;;31.50;38.80;;;;;;5044630;28;20036;-86
2022/07/15 13:00:14;;;;;;;2.85;0.75;;;31.50;38.20;;;;;;5037204;28;20115;-89